Latest Weather Observations for Dwellingup

IDW60801

Issued at 7:33 am WST Wednesday 16 January 2019 (issued every 10 minutes, with the page automatically refreshed every 10 minutes)

About weather observations | Map of weather stations | Latest weather observations for WA | Other Formats
Station Details ID: 009538 Name: DWELLINGUP Lat: -32.71 Lon: 116.06 Height: 267.0 m
Data from the previous 72 hours. | See also: Recent months at Dwellingup
Date/Time
WST
Temp
°C
App
Temp
°C
Dew
Point
°C
Rel
Hum
%
Delta-T
°C
Wind Press
QNH
hPa
Press
MSL
hPa
Rain since
9am
mm
Dir  Spd
km/h
Gust
km/h
Spd
kts
Gust
kts
16/07:30am 16.0 12.0 9.2 64 3.6 SE 20 28 11 15 1013.7 1012.6 0.0
16/07:00am 14.6 11.5 9.0 69 2.9 SE 15 24 8 13 1013.2 1012.0 0.0
16/06:30am 13.9 10.4 8.7 71 2.7 SE 17 26 9 14 1013.3 1012.1 0.0
16/06:00am 13.4 9.5 8.7 73 2.4 ESE 19 26 10 14 1012.9 1011.7 0.0
16/05:30am 13.2 9.3 8.5 73 2.4 SE 19 32 10 17 1012.7 1011.5 0.0
16/05:00am 13.5 9.0 8.6 72 2.5 SE 22 35 12 19 1012.6 1011.4 0.0
16/04:30am 14.0 10.1 8.8 71 2.7 SE 19 30 10 16 1012.4 1011.2 0.0
16/04:00am 14.8 10.8 9.0 68 3.0 SE 20 32 11 17 1012.0 1010.8 0.0
16/03:30am 15.0 11.0 8.9 67 3.2 ESE 20 32 11 17 1011.6 1010.5 0.0
16/03:00am 15.3 11.3 9.0 66 3.3 ESE 20 32 11 17 1011.5 1010.4 0.0
16/02:30am 15.6 11.7 8.8 64 3.5 ESE 19 28 10 15 1011.5 1010.4 0.0
16/02:00am 16.0 11.5 8.7 62 3.8 SE 22 39 12 21 1011.9 1010.7 0.0
16/01:30am 16.5 12.5 9.0 61 3.9 ESE 20 32 11 17 1012.0 1010.8 0.0
16/01:00am 17.0 12.2 8.9 59 4.2 SE 24 37 13 20 1012.0 1010.8 0.0
16/12:30am 17.5 12.8 9.2 58 4.4 SE 24 37 13 20 1012.0 1010.8 0.0
16/12:00am 17.9 14.0 9.5 58 4.5 SE 20 35 11 19 1012.0 1010.8 0.0
 
Date/Time
WST
Temp
°C
App
Temp
°C
Dew
Point
°C
Rel
Hum
%
Delta-T
°C
Wind Press
QNH
hPa
Press
MSL
hPa
Rain since
9am
mm
Dir  Spd
km/h
Gust
km/h
Spd
kts
Gust
kts
15/11:30pm 18.5 14.3 9.8 57 4.7 SE 22 37 12 20 1012.0 1010.8 0.0
15/11:00pm 19.0 15.3 10.0 56 4.9 SSE 20 32 11 17 1012.0 1010.8 0.0
15/10:30pm 19.7 15.6 10.1 54 5.2 SSE 22 33 12 18 1011.9 1010.7 0.0
15/10:00pm 19.7 16.3 10.7 56 5.0 SSE 19 28 10 15 1011.9 1010.7 0.0
15/09:30pm 19.6 16.7 10.9 57 4.8 S 17 24 9 13 1011.8 1010.6 0.0
15/09:00pm 19.7 17.2 10.9 57 4.9 SSW 15 24 8 13 1011.5 1010.4 0.0
15/08:30pm 20.4 18.0 11.3 56 5.1 SSW 15 26 8 14 1011.3 1010.2 0.0
15/08:00pm 20.3 18.2 11.2 56 5.1 SW 13 22 7 12 1011.1 1010.0 0.0
15/07:30pm 21.1 19.4 11.2 53 5.5 WSW 11 19 6 10 1011.0 1009.9 0.0
15/07:00pm 22.3 19.7 10.8 48 6.4 SW 15 24 8 13 1010.9 1009.8 0.0
15/06:30pm 23.7 21.2 11.1 45 7.1 WSW 15 28 8 15 1011.0 1009.9 0.0
15/06:00pm 24.7 22.3 11.3 43 7.6 SW 15 22 8 12 1010.9 1009.8 0.0
15/05:30pm 25.3 22.4 11.1 41 8.1 SSW 17 30 9 16 1010.8 1009.7 0.0
15/05:00pm 25.6 22.7 11.0 40 8.3 SW 17 32 9 17 1010.8 1009.7 0.0
15/04:30pm 26.7 23.2 10.8 37 9.1 SW 20 32 11 17 1010.7 1009.6 0.0
15/04:00pm 27.1 23.9 11.2 37 9.2 SW 19 30 10 16 1010.7 1009.6 0.0
15/03:30pm 28.8 25.2 8.5 28 11.3 SW 17 26 9 14 1010.6 1009.5 0.0
15/03:00pm 28.6 26.0 9.3 30 10.8 SE 13 24 7 13 1010.9 1009.8 0.0
15/02:30pm 28.7 27.5 9.4 30 10.9 S 6 13 3 7 1011.3 1010.2 0.0
15/02:00pm 26.9 24.9 8.8 32 10.0 NE 9 15 5 8 1011.6 1010.5 0.0
15/01:30pm 26.7 24.9 9.5 34 9.6 S 9 17 5 9 1012.0 1010.8 0.0
15/01:00pm 26.5 24.6 8.9 33 9.7 SE 9 19 5 10 1012.3 1011.1 0.0
15/12:30pm 25.8 23.1 8.8 34 9.3 SSE 13 24 7 13 1012.7 1011.5 0.0
15/12:00pm 24.7 21.6 9.0 37 8.6 SE 15 26 8 14 1013.0 1011.8 0.0
15/11:30am 24.4 21.5 9.6 39 8.2 ESE 15 24 8 13 1013.3 1012.1 0.0
15/11:00am 23.8 20.8 9.4 40 7.9 E 15 30 8 16 1013.4 1012.3 0.0
15/10:30am 22.2 18.9 9.4 44 7.0 ESE 17 30 9 16 1013.9 1012.8 0.0
15/10:00am 21.2 17.9 9.4 47 6.4 ESE 17 28 9 15 1014.2 1013.1 0.0
15/09:30am 20.4 17.1 9.6 50 5.8 ESE 17 32 9 17 1014.4 1013.3 0.0
15/09:00am 19.1 15.7 9.0 52 5.4 ESE 17 28 9 15 1014.4 1013.3 0.0
15/08:30am 17.8 13.8 8.9 56 4.7 E 20 32 11 17 1014.4 1013.3 0.0
15/08:00am 16.9 12.5 9.1 60 4.1 E 22 37 12 20 1014.7 1013.6 0.0
15/07:30am 15.4 10.9 8.6 64 3.5 ESE 22 43 12 23 1014.6 1013.5 0.0
15/07:00am 14.8 10.3 8.7 67 3.1 ESE 22 39 12 21 1014.5 1013.4 0.0
15/06:30am 14.1 9.6 8.7 70 2.8 ESE 22 33 12 18 1014.2 1013.1 0.0
15/06:00am 13.6 9.4 8.4 71 2.6 ESE 20 35 11 19 1013.8 1012.7 0.0
15/05:30am 13.5 9.0 8.4 71 2.6 ESE 22 35 12 19 1013.7 1012.6 0.0
15/05:00am 13.7 8.8 8.3 70 2.7 ESE 24 39 13 21 1013.4 1012.3 0.0
15/04:30am 13.9 8.6 8.3 69 2.8 ESE 26 39 14 21 1013.3 1012.1 0.0
15/04:00am 14.1 9.2 8.3 68 2.9 ESE 24 41 13 22 1013.2 1012.0 0.0
15/03:30am 14.4 9.5 8.4 67 3.1 ESE 24 44 13 24 1013.1 1011.9 0.0
15/03:00am 14.7 10.2 8.4 66 3.2 ESE 22 37 12 20 1013.0 1011.8 0.0
15/02:30am 15.1 10.5 8.3 64 3.5 ESE 22 39 12 21 1013.1 1011.9 0.0
15/02:00am 15.7 11.1 8.2 61 3.8 ESE 22 37 12 20 1013.3 1012.1 0.0
15/01:30am 16.0 11.7 8.0 59 4.1 ESE 20 35 11 19 1013.3 1012.1 0.0
15/01:00am 16.3 11.3 8.0 58 4.2 ESE 24 39 13 21 1013.4 1012.3 0.0
15/12:30am 16.8 11.0 8.0 56 4.5 SE 28 43 15 23 1013.5 1012.4 0.0
15/12:00am 17.5 11.7 8.1 54 4.9 SE 28 44 15 24 1013.7 1012.6 0.0
 
Date/Time
WST
Temp
°C
App
Temp
°C
Dew
Point
°C
Rel
Hum
%
Delta-T
°C
Wind Press
QNH
hPa
Press
MSL
hPa
Rain since
9am
mm
Dir  Spd
km/h
Gust
km/h
Spd
kts
Gust
kts
14/11:35pm 18.2 12.5 8.2 52 5.2 SE 28 46 15 25 1013.7 1012.6 0.0
14/11:30pm 18.3 13.7 8.3 52 5.2 SE 22 39 12 21 1013.8 1012.7 0.0
14/11:00pm 19.1 14.6 8.7 51 5.5 SE 22 35 12 19 1013.8 1012.7 0.0
14/10:30pm 19.9 15.3 9.8 52 5.5 SE 24 39 13 21 1013.8 1012.7 0.0
14/10:00pm 20.0 15.9 10.1 53 5.4 SSE 22 41 12 22 1013.7 1012.6 0.0
14/09:30pm 20.0 16.6 10.7 55 5.1 S 19 33 10 18 1013.5 1012.4 0.0
14/09:00pm 19.7 17.6 11.2 58 4.7 S 13 19 7 10 1013.5 1012.4 0.0
14/08:30pm 19.9 17.9 10.3 54 5.2 SW 11 17 6 9 1013.3 1012.1 0.0
14/08:00pm 20.9 18.9 10.1 50 5.9 SW 11 19 6 10 1013.0 1011.8 0.0
14/07:30pm 21.8 20.0 10.9 50 6.1 WSW 11 22 6 12 1012.7 1011.5 0.0
14/07:00pm 23.1 20.9 10.9 46 6.9 WSW 13 26 7 14 1012.4 1011.2 0.0
14/06:30pm 24.2 21.9 10.5 42 7.7 SW 13 22 7 12 1012.4 1011.2 0.0
14/06:00pm 24.7 21.6 10.2 40 8.1 SW 17 30 9 16 1012.4 1011.2 0.0
14/05:30pm 25.9 23.5 10.1 37 8.9 SW 13 24 7 13 1012.1 1010.9 0.0
14/05:00pm 27.3 25.0 10.5 35 9.6 SW 13 30 7 16 1011.9 1010.7 0.0
14/04:30pm 28.3 24.7 10.5 33 10.2 SSW 20 32 11 17 1011.9 1010.7 0.0
14/04:00pm 28.0 23.9 10.2 33 10.1 SSW 22 35 12 19 1011.9 1010.7 0.0
14/03:30pm 28.9 25.3 10.6 32 10.5 WSW 20 33 11 18 1011.9 1010.7 0.0
14/03:00pm 29.5 28.0 9.1 28 11.5 ESE 7 13 4 7 1012.0 1010.8 0.0
14/02:30pm 29.8 27.8 8.8 27 11.8 S 9 19 5 10 1012.3 1011.1 0.0
14/02:00pm 28.6 27.1 9.3 30 10.8 W 7 13 4 7 1012.6 1011.4 0.0
14/01:30pm 28.5 27.1 9.7 31 10.6 S 7 17 4 9 1013.0 1011.8 0.0
14/01:00pm 27.2 25.9 10.0 34 9.7 SE 7 17 4 9 1013.3 1012.1 0.0
14/12:30pm 26.4 24.3 9.7 35 9.3 SE 11 19 6 10 1013.6 1012.5 0.0
14/12:00pm 27.2 25.0 10.8 36 9.4 SE 13 22 7 12 1014.0 1012.9 0.0
14/11:30am 26.6 24.9 11.1 38 8.9 SSE 11 22 6 12 1014.4 1013.3 0.0
14/11:00am 24.3 22.2 11.3 44 7.4 SSE 13 24 7 13 1014.7 1013.6 0.0
14/10:30am 24.0 22.1 11.7 46 7.0 ESE 13 24 7 13 1014.8 1013.7 0.0
14/10:00am 23.4 21.9 11.8 48 6.6 SE 11 22 6 12 1015.0 1013.9 0.0
14/09:30am 22.4 20.1 11.8 51 6.0 ESE 15 26 8 14 1015.3 1014.2 0.0
14/09:00am 21.7 19.2 12.3 55 5.4 SSE 17 26 9 14 1015.4 1014.3 0.0
14/08:30am 20.0 17.8 12.0 60 4.5 SE 15 28 8 15 1015.7 1014.5 0.0
14/08:00am 18.8 16.5 11.9 64 3.9 SE 15 26 8 14 1015.9 1014.7 0.0
14/07:30am 18.1 15.5 12.1 68 3.4 SE 17 26 9 14 1015.9 1014.7 0.0
14/07:00am 17.2 14.7 12.3 73 2.7 SE 17 28 9 15 1015.8 1014.6 0.0
14/06:30am 16.7 14.2 12.3 75 2.5 SE 17 30 9 16 1015.5 1014.4 0.0
14/06:00am 16.4 13.9 12.4 77 2.2 ESE 17 26 9 14 1015.4 1014.3 0.0
14/05:30am 16.3 14.2 12.3 77 2.2 SE 15 22 8 12 1015.1 1014.0 0.0
14/05:00am 16.4 13.5 12.4 77 2.2 ESE 19 26 10 14 1014.9 1013.8 0.0
14/04:30am 16.6 14.1 12.4 76 2.3 ESE 17 28 9 15 1014.8 1013.7 0.0
14/04:00am 17.1 14.6 12.4 74 2.6 ESE 17 26 9 14 1014.7 1013.6 0.0
14/03:30am 17.6 14.8 12.7 73 2.8 ESE 19 30 10 16 1014.7 1013.6 0.0
14/03:00am 17.8 15.0 12.7 72 2.9 ESE 19 30 10 16 1014.9 1013.8 0.0
14/02:30am 18.1 15.4 12.8 71 3.0 ESE 19 30 10 16 1015.1 1014.0 0.0
14/02:00am 18.5 14.9 12.9 70 3.2 ESE 24 39 13 21 1015.3 1014.2 0.0
14/01:30am 18.5 15.7 12.7 69 3.3 ESE 19 37 10 20 1015.8 1014.6 0.0
14/01:00am 18.5 16.1 12.7 69 3.3 ESE 17 28 9 15 1016.0 1014.8 0.0
14/12:30am 18.7 16.0 12.9 69 3.3 ESE 19 30 10 16 1016.1 1014.9 0.0
14/12:00am 19.1 16.8 13.1 68 3.4 SE 17 28 9 15 1016.1 1014.9 0.0
 
Date/Time
WST
Temp
°C
App
Temp
°C
Dew
Point
°C
Rel
Hum
%
Delta-T
°C
Wind Press
QNH
hPa
Press
MSL
hPa
Rain since
9am
mm
Dir  Spd
km/h
Gust
km/h
Spd
kts
Gust
kts
13/11:30pm 19.5 17.6 13.0 66 3.7 SE 15 26 8 14 1016.1 1014.9 0.0
13/11:00pm 20.0 17.1 13.0 64 4.0 SE 20 33 11 18 1016.3 1015.1 0.0
13/10:30pm 20.9 18.1 13.1 61 4.5 SE 20 32 11 17 1016.3 1015.1 0.0
13/10:00pm 21.5 19.3 13.2 59 4.8 SSE 17 26 9 14 1016.2 1015.0 0.0
13/09:30pm 21.6 19.5 13.5 60 4.7 S 17 26 9 14 1015.8 1014.6 0.0
13/09:00pm 21.9 20.3 14.0 61 4.6 S 15 22 8 12 1015.5 1014.4 0.0
13/08:30pm 22.4 20.1 14.0 59 5.0 SSW 19 30 10 16 1015.1 1014.0 0.0
13/08:00pm 22.8 20.2 13.8 57 5.3 SSW 20 32 11 17 1015.0 1013.9 0.0
13/07:30pm 23.2 21.4 14.5 58 5.2 SW 17 28 9 15 1014.6 1013.5 0.0
13/07:00pm 24.2 22.3 14.3 54 5.9 SW 17 35 9 19 1014.2 1013.1 0.0
13/06:30pm 25.8 23.7 13.6 47 7.3 SW 17 37 9 20 1013.9 1012.8 0.0
13/06:00pm 27.4 25.5 14.1 44 8.0 SW 17 33 9 18 1013.8 1012.7 0.0
13/05:30pm 27.3 25.2 13.6 43 8.2 SW 17 32 9 17 1013.4 1012.3 0.0
13/05:00pm 28.3 25.7 13.8 41 8.7 SW 20 33 11 18 1013.1 1011.9 0.0
13/04:30pm 27.5 25.7 13.4 41 8.4 SW 15 26 8 14 1013.2 1012.0 0.0
13/04:00pm 28.2 25.3 14.1 42 8.5 SW 22 37 12 20 1013.1 1011.9 0.0
13/03:30pm 28.7 26.4 14.1 40 8.9 SW 19 30 10 16 1013.2 1012.0 0.0
13/03:00pm 28.9 26.5 13.9 39 9.1 WSW 19 33 10 18 1013.3 1012.1 0.0
13/02:30pm 29.0 26.8 13.2 37 9.5 SW 17 32 9 17 1013.4 1012.3 0.0
13/02:00pm 29.5 26.6 12.4 35 10.1 SW 19 28 10 15 1013.4 1012.3 0.0
13/01:30pm 29.7 26.7 10.8 31 10.9 SSW 17 30 9 16 1013.6 1012.5 0.0
13/01:00pm 29.4 26.4 10.5 31 10.9 SW 17 28 9 15 1013.7 1012.6 0.0
13/12:30pm 29.1 26.4 10.3 31 10.8 SSW 15 26 8 14 1013.9 1012.8 0.0
13/12:00pm 28.1 24.9 9.9 32 10.3 SW 17 32 9 17 1013.9 1012.8 0.0
13/11:30am 27.7 24.3 9.0 31 10.4 SSW 17 32 9 17 1014.0 1012.9 0.0
13/11:00am 26.3 23.7 9.2 34 9.5 SW 13 26 7 14 1014.2 1013.1 0.0
13/10:30am 26.0 22.5 8.9 34 9.4 S 17 28 9 15 1014.4 1013.3 0.0
13/10:00am 25.0 20.8 8.1 34 9.1 SSW 20 35 11 19 1014.4 1013.3 0.0
13/09:30am 24.0 19.9 6.3 32 9.2 SSE 17 26 9 14 1014.4 1013.3 0.0
13/09:00am 22.9 19.2 6.2 34 8.6 SSE 15 26 8 14 1014.4 1013.3 0.0
13/08:30am 21.1 18.7 8.7 45 6.6 S 11 19 6 10 1014.2 1013.1 0.0
13/08:00am 19.4 16.5 9.6 53 5.3 SSW 15 26 8 14 1014.2 1013.1 0.0

Other Formats:

Comma delimited format used in spreadsheet applications
http://www.bom.gov.au/fwo/IDW60801/IDW60801.94620.axf

JavaScript Object Notation format (JSON) in row-major order
http://www.bom.gov.au/fwo/IDW60801/IDW60801.94620.json